sensor_id;sensor_type;location;lat;lon;timestamp;temperature;humidity
19060;DHT22;9663;48.996;8.334;2022-12-31T00:02:13;17.00;70.00
19060;DHT22;9663;48.996;8.334;2022-12-31T00:04:38;16.90;69.80
19060;DHT22;9663;48.996;8.334;2022-12-31T00:07:04;17.40;69.90
19060;DHT22;9663;48.996;8.334;2022-12-31T00:09:30;17.10;69.70
19060;DHT22;9663;48.996;8.334;2022-12-31T00:11:55;17.20;69.70
19060;DHT22;9663;48.996;8.334;2022-12-31T00:14:21;17.10;69.50
19060;DHT22;9663;48.996;8.334;2022-12-31T00:16:46;17.20;69.60
19060;DHT22;9663;48.996;8.334;2022-12-31T00:19:12;17.30;69.60
19060;DHT22;9663;48.996;8.334;2022-12-31T00:21:38;17.20;69.50
19060;DHT22;9663;48.996;8.334;2022-12-31T00:24:05;17.20;69.40
19060;DHT22;9663;48.996;8.334;2022-12-31T00:26:32;16.90;69.20
19060;DHT22;9663;48.996;8.334;2022-12-31T00:28:59;17.60;69.70
19060;DHT22;9663;48.996;8.334;2022-12-31T00:31:34;18.10;70.00
19060;DHT22;9663;48.996;8.334;2022-12-31T00:34:02;17.20;69.50
19060;DHT22;9663;48.996;8.334;2022-12-31T00:36:37;17.60;69.80
19060;DHT22;9663;48.996;8.334;2022-12-31T00:39:05;17.20;69.70
19060;DHT22;9663;48.996;8.334;2022-12-31T00:41:33;16.90;69.50
19060;DHT22;9663;48.996;8.334;2022-12-31T00:43:59;17.50;69.80
19060;DHT22;9663;48.996;8.334;2022-12-31T00:46:25;17.10;69.70
19060;DHT22;9663;48.996;8.334;2022-12-31T00:48:51;17.00;69.70
19060;DHT22;9663;48.996;8.334;2022-12-31T00:51:21;17.00;69.70
19060;DHT22;9663;48.996;8.334;2022-12-31T00:53:48;17.30;70.00
19060;DHT22;9663;48.996;8.334;2022-12-31T00:56:18;17.10;70.20
19060;DHT22;9663;48.996;8.334;2022-12-31T00:58:46;17.20;69.80
19060;DHT22;9663;48.996;8.334;2022-12-31T01:01:15;17.30;70.00
19060;DHT22;9663;48.996;8.334;2022-12-31T01:03:44;17.20;69.80
19060;DHT22;9663;48.996;8.334;2022-12-31T01:06:10;17.30;69.90
19060;DHT22;9663;48.996;8.334;2022-12-31T01:08:36;17.40;69.90
19060;DHT22;9663;48.996;8.334;2022-12-31T01:11:02;17.30;69.70
19060;DHT22;9663;48.996;8.334;2022-12-31T01:13:48;17.30;69.80
19060;DHT22;9663;48.996;8.334;2022-12-31T01:16:15;17.40;69.70
19060;DHT22;9663;48.996;8.334;2022-12-31T01:18:41;17.20;69.60
19060;DHT22;9663;48.996;8.334;2022-12-31T01:21:09;17.20;69.70
19060;DHT22;9663;48.996;8.334;2022-12-31T01:23:37;18.30;70.20
19060;DHT22;9663;48.996;8.334;2022-12-31T01:26:05;17.30;69.60
19060;DHT22;9663;48.996;8.334;2022-12-31T01:28:33;16.90;69.40
19060;DHT22;9663;48.996;8.334;2022-12-31T01:31:06;17.20;69.50
19060;DHT22;9663;48.996;8.334;2022-12-31T01:33:33;17.30;69.40
19060;DHT22;9663;48.996;8.334;2022-12-31T01:36:04;18.70;70.20
19060;DHT22;9663;48.996;8.334;2022-12-31T01:38:33;17.20;69.30
19060;DHT22;9663;48.996;8.334;2022-12-31T01:41:00;17.30;69.20
19060;DHT22;9663;48.996;8.334;2022-12-31T01:43:47;17.40;69.50
19060;DHT22;9663;48.996;8.334;2022-12-31T01:49:31;17.40;68.80
19060;DHT22;9663;48.996;8.334;2022-12-31T01:52:21;17.50;68.80
19060;DHT22;9663;48.996;8.334;2022-12-31T01:55:02;18.10;69.00
19060;DHT22;9663;48.996;8.334;2022-12-31T01:57:34;17.80;68.70
19060;DHT22;9663;48.996;8.334;2022-12-31T02:00:03;17.90;68.90
19060;DHT22;9663;48.996;8.334;2022-12-31T02:02:29;15.90;67.60
19060;DHT22;9663;48.996;8.334;2022-12-31T02:04:57;17.80;68.80
19060;DHT22;9663;48.996;8.334;2022-12-31T02:07:25;17.90;68.20
19060;DHT22;9663;48.996;8.334;2022-12-31T02:09:52;17.50;68.50
19060;DHT22;9663;48.996;8.334;2022-12-31T02:12:18;17.80;68.40
19060;DHT22;9663;48.996;8.334;2022-12-31T02:14:48;17.80;68.40
19060;DHT22;9663;48.996;8.334;2022-12-31T02:20:28;18.00;68.30
19060;DHT22;9663;48.996;8.334;2022-12-31T02:32:14;17.90;67.30
19060;DHT22;9663;48.996;8.334;2022-12-31T02:35:14;18.20;67.20
19060;DHT22;9663;48.996;8.334;2022-12-31T02:38:11;18.30;67.40
19060;DHT22;9663;48.996;8.334;2022-12-31T02:40:41;18.00;66.90
19060;DHT22;9663;48.996;8.334;2022-12-31T02:43:07;18.20;67.00
19060;DHT22;9663;48.996;8.334;2022-12-31T02:45:37;18.50;67.30
19060;DHT22;9663;48.996;8.334;2022-12-31T02:48:31;18.30;67.00
19060;DHT22;9663;48.996;8.334;2022-12-31T02:51:26;18.30;66.90
19060;DHT22;9663;48.996;8.334;2022-12-31T02:54:15;18.30;66.60
19060;DHT22;9663;48.996;8.334;2022-12-31T03:02:21;18.30;66.30
19060;DHT22;9663;48.996;8.334;2022-12-31T03:04:56;18.20;66.30
19060;DHT22;9663;48.996;8.334;2022-12-31T03:07:28;18.60;66.60
19060;DHT22;9663;48.996;8.334;2022-12-31T03:10:00;18.80;66.60
19060;DHT22;9663;48.996;8.334;2022-12-31T03:12:28;18.60;66.50
19060;DHT22;9663;48.996;8.334;2022-12-31T03:15:13;18.70;67.30
19060;DHT22;9663;48.996;8.334;2022-12-31T03:18:02;18.30;66.20
19060;DHT22;9663;48.996;8.334;2022-12-31T03:20:43;18.20;66.00
19060;DHT22;9663;48.996;8.334;2022-12-31T03:23:39;18.70;66.30
19060;DHT22;9663;48.996;8.334;2022-12-31T03:26:14;18.70;66.10
19060;DHT22;9663;48.996;8.334;2022-12-31T03:28:42;18.60;66.40
19060;DHT22;9663;48.996;8.334;2022-12-31T03:31:12;20.10;67.20
19060;DHT22;9663;48.996;8.334;2022-12-31T03:33:40;18.60;66.30
19060;DHT22;9663;48.996;8.334;2022-12-31T03:36:13;18.50;66.30
19060;DHT22;9663;48.996;8.334;2022-12-31T03:38:40;18.60;65.70
19060;DHT22;9663;48.996;8.334;2022-12-31T03:41:08;18.40;66.20
19060;DHT22;9663;48.996;8.334;2022-12-31T03:43:35;18.70;66.20
19060;DHT22;9663;48.996;8.334;2022-12-31T03:46:00;18.70;66.30
19060;DHT22;9663;48.996;8.334;2022-12-31T03:48:26;18.70;66.40
19060;DHT22;9663;48.996;8.334;2022-12-31T03:50:52;18.90;66.50
19060;DHT22;9663;48.996;8.334;2022-12-31T03:53:18;18.30;66.10
19060;DHT22;9663;48.996;8.334;2022-12-31T03:55:44;18.70;66.20
19060;DHT22;9663;48.996;8.334;2022-12-31T03:58:09;19.50;66.80
19060;DHT22;9663;48.996;8.334;2022-12-31T04:00:35;19.10;66.50
19060;DHT22;9663;48.996;8.334;2022-12-31T04:03:01;18.60;66.00
19060;DHT22;9663;48.996;8.334;2022-12-31T04:05:27;18.70;67.10
19060;DHT22;9663;48.996;8.334;2022-12-31T04:07:52;18.70;66.10
19060;DHT22;9663;48.996;8.334;2022-12-31T04:10:20;18.70;66.20
19060;DHT22;9663;48.996;8.334;2022-12-31T04:12:46;18.70;66.10
19060;DHT22;9663;48.996;8.334;2022-12-31T04:15:19;18.90;66.90
19060;DHT22;9663;48.996;8.334;2022-12-31T04:17:46;18.70;65.90
19060;DHT22;9663;48.996;8.334;2022-12-31T04:20:13;18.70;66.00
19060;DHT22;9663;48.996;8.334;2022-12-31T04:22:39;20.10;66.90
19060;DHT22;9663;48.996;8.334;2022-12-31T04:25:06;19.00;66.20
19060;DHT22;9663;48.996;8.334;2022-12-31T04:27:37;18.60;65.80
19060;DHT22;9663;48.996;8.334;2022-12-31T04:30:08;18.70;66.00
19060;DHT22;9663;48.996;8.334;2022-12-31T04:32:34;18.60;65.80
19060;DHT22;9663;48.996;8.334;2022-12-31T04:35:00;18.70;65.90
19060;DHT22;9663;48.996;8.334;2022-12-31T04:37:26;18.60;65.80
19060;DHT22;9663;48.996;8.334;2022-12-31T04:39:51;18.80;66.10
19060;DHT22;9663;48.996;8.334;2022-12-31T04:42:17;19.20;66.30
19060;DHT22;9663;48.996;8.334;2022-12-31T04:44:43;18.90;66.00
19060;DHT22;9663;48.996;8.334;2022-12-31T04:47:08;18.70;65.90
19060;DHT22;9663;48.996;8.334;2022-12-31T04:49:34;18.80;65.90
19060;DHT22;9663;48.996;8.334;2022-12-31T04:52:00;18.80;66.60
19060;DHT22;9663;48.996;8.334;2022-12-31T04:54:25;18.70;65.70
19060;DHT22;9663;48.996;8.334;2022-12-31T04:56:51;18.60;65.60
19060;DHT22;9663;48.996;8.334;2022-12-31T04:59:16;18.70;65.70
19060;DHT22;9663;48.996;8.334;2022-12-31T05:01:42;18.70;65.80
19060;DHT22;9663;48.996;8.334;2022-12-31T05:04:08;19.00;65.80
19060;DHT22;9663;48.996;8.334;2022-12-31T05:06:33;19.00;65.90
19060;DHT22;9663;48.996;8.334;2022-12-31T05:08:59;18.60;65.60
19060;DHT22;9663;48.996;8.334;2022-12-31T05:11:25;18.70;65.80
19060;DHT22;9663;48.996;8.334;2022-12-31T05:13:51;18.70;65.80
19060;DHT22;9663;48.996;8.334;2022-12-31T05:16:16;18.70;65.80
19060;DHT22;9663;48.996;8.334;2022-12-31T05:18:42;18.70;65.70
19060;DHT22;9663;48.996;8.334;2022-12-31T05:21:10;18.70;65.70
19060;DHT22;9663;48.996;8.334;2022-12-31T05:23:42;18.60;65.60
19060;DHT22;9663;48.996;8.334;2022-12-31T05:26:08;18.60;65.60
19060;DHT22;9663;48.996;8.334;2022-12-31T05:28:33;18.60;65.50
19060;DHT22;9663;48.996;8.334;2022-12-31T05:30:59;18.60;65.50
19060;DHT22;9663;48.996;8.334;2022-12-31T05:33:25;19.00;65.80
19060;DHT22;9663;48.996;8.334;2022-12-31T05:35:50;19.10;65.80
19060;DHT22;9663;48.996;8.334;2022-12-31T05:38:16;18.80;65.70
19060;DHT22;9663;48.996;8.334;2022-12-31T05:40:42;19.80;66.20
19060;DHT22;9663;48.996;8.334;2022-12-31T05:43:07;18.60;65.40
19060;DHT22;9663;48.996;8.334;2022-12-31T05:45:33;19.00;65.70
19060;DHT22;9663;48.996;8.334;2022-12-31T05:47:59;18.70;65.50
19060;DHT22;9663;48.996;8.334;2022-12-31T05:50:25;18.90;65.60
19060;DHT22;9663;48.996;8.334;2022-12-31T05:52:50;18.60;65.40
19060;DHT22;9663;48.996;8.334;2022-12-31T05:55:16;18.60;65.30
19060;DHT22;9663;48.996;8.334;2022-12-31T05:57:42;18.70;65.50
19060;DHT22;9663;48.996;8.334;2022-12-31T06:00:09;20.20;66.30
19060;DHT22;9663;48.996;8.334;2022-12-31T06:02:35;18.60;65.20
19060;DHT22;9663;48.996;8.334;2022-12-31T06:05:01;18.70;65.20
19060;DHT22;9663;48.996;8.334;2022-12-31T06:07:26;18.70;65.40
19060;DHT22;9663;48.996;8.334;2022-12-31T06:09:52;18.70;65.40
19060;DHT22;9663;48.996;8.334;2022-12-31T06:12:18;18.60;65.30
19060;DHT22;9663;48.996;8.334;2022-12-31T06:14:43;18.50;65.30
19060;DHT22;9663;48.996;8.334;2022-12-31T06:17:09;18.60;65.30
19060;DHT22;9663;48.996;8.334;2022-12-31T06:19:35;18.60;65.30
19060;DHT22;9663;48.996;8.334;2022-12-31T06:22:00;18.30;65.10
19060;DHT22;9663;48.996;8.334;2022-12-31T06:24:26;18.40;65.20
19060;DHT22;9663;48.996;8.334;2022-12-31T06:26:52;18.60;65.40
19060;DHT22;9663;48.996;8.334;2022-12-31T06:29:17;18.80;65.60
19060;DHT22;9663;48.996;8.334;2022-12-31T06:31:43;18.20;65.30
19060;DHT22;9663;48.996;8.334;2022-12-31T06:34:09;18.70;65.70
19060;DHT22;9663;48.996;8.334;2022-12-31T06:36:35;18.90;65.90
19060;DHT22;9663;48.996;8.334;2022-12-31T06:39:01;18.10;65.30
19060;DHT22;9663;48.996;8.334;2022-12-31T06:41:26;18.10;65.40
19060;DHT22;9663;48.996;8.334;2022-12-31T06:43:52;18.20;65.60
19060;DHT22;9663;48.996;8.334;2022-12-31T06:46:18;18.20;66.40
19060;DHT22;9663;48.996;8.334;2022-12-31T06:48:44;18.20;65.60
19060;DHT22;9663;48.996;8.334;2022-12-31T06:51:12;18.20;65.50
19060;DHT22;9663;48.996;8.334;2022-12-31T06:53:43;18.20;65.40
19060;DHT22;9663;48.996;8.334;2022-12-31T06:56:19;18.20;65.50
19060;DHT22;9663;48.996;8.334;2022-12-31T06:58:50;18.30;65.30
19060;DHT22;9663;48.996;8.334;2022-12-31T07:12:45;18.20;65.10
19060;DHT22;9663;48.996;8.334;2022-12-31T07:15:29;18.30;65.10
19060;DHT22;9663;48.996;8.334;2022-12-31T07:20:35;18.20;65.10
19060;DHT22;9663;48.996;8.334;2022-12-31T07:23:01;18.60;65.40
19060;DHT22;9663;48.996;8.334;2022-12-31T07:25:27;18.30;65.20
19060;DHT22;9663;48.996;8.334;2022-12-31T07:28:21;18.30;65.60
19060;DHT22;9663;48.996;8.334;2022-12-31T07:31:27;18.30;65.00
19060;DHT22;9663;48.996;8.334;2022-12-31T07:34:18;18.50;64.90
19060;DHT22;9663;48.996;8.334;2022-12-31T07:37:07;18.50;65.10
19060;DHT22;9663;48.996;8.334;2022-12-31T07:39:59;18.40;65.10
19060;DHT22;9663;48.996;8.334;2022-12-31T07:46:18;18.10;64.60
19060;DHT22;9663;48.996;8.334;2022-12-31T07:48:51;18.30;64.70
19060;DHT22;9663;48.996;8.334;2022-12-31T07:51:17;18.30;65.00
19060;DHT22;9663;48.996;8.334;2022-12-31T07:53:42;18.40;65.00
19060;DHT22;9663;48.996;8.334;2022-12-31T07:56:08;18.60;65.10
19060;DHT22;9663;48.996;8.334;2022-12-31T08:04:26;18.60;64.80
19060;DHT22;9663;48.996;8.334;2022-12-31T08:07:18;18.20;64.50
19060;DHT22;9663;48.996;8.334;2022-12-31T08:10:09;19.70;65.30
19060;DHT22;9663;48.996;8.334;2022-12-31T08:12:44;18.30;64.40
19060;DHT22;9663;48.996;8.334;2022-12-31T08:15:16;19.60;65.30
19060;DHT22;9663;48.996;8.334;2022-12-31T08:17:43;18.80;64.90
19060;DHT22;9663;48.996;8.334;2022-12-31T08:20:16;18.60;64.90
19060;DHT22;9663;48.996;8.334;2022-12-31T08:31:13;19.00;64.50
19060;DHT22;9663;48.996;8.334;2022-12-31T08:33:50;19.50;64.60
19060;DHT22;9663;48.996;8.334;2022-12-31T08:36:45;19.00;64.50
19060;DHT22;9663;48.996;8.334;2022-12-31T08:44:57;19.10;63.50
19060;DHT22;9663;48.996;8.334;2022-12-31T08:50:39;19.50;63.30
19060;DHT22;9663;48.996;8.334;2022-12-31T08:53:05;19.60;64.10
19060;DHT22;9663;48.996;8.334;2022-12-31T08:55:31;19.60;63.60
19060;DHT22;9663;48.996;8.334;2022-12-31T08:58:23;19.40;63.40
19060;DHT22;9663;48.996;8.334;2022-12-31T09:00:56;19.70;62.90
19060;DHT22;9663;48.996;8.334;2022-12-31T09:12:10;19.80;62.40
19060;DHT22;9663;48.996;8.334;2022-12-31T09:15:12;19.70;62.00
19060;DHT22;9663;48.996;8.334;2022-12-31T09:17:48;20.00;62.20
19060;DHT22;9663;48.996;8.334;2022-12-31T09:20:25;20.00;62.50
19060;DHT22;9663;48.996;8.334;2022-12-31T09:22:54;19.90;62.20
19060;DHT22;9663;48.996;8.334;2022-12-31T09:25:23;20.00;62.40
19060;DHT22;9663;48.996;8.334;2022-12-31T09:28:37;19.90;62.30
19060;DHT22;9663;48.996;8.334;2022-12-31T09:34:11;20.10;61.40
19060;DHT22;9663;48.996;8.334;2022-12-31T09:36:51;20.30;62.10
19060;DHT22;9663;48.996;8.334;2022-12-31T09:39:44;20.60;62.30
19060;DHT22;9663;48.996;8.334;2022-12-31T09:54:07;20.60;61.00
19060;DHT22;9663;48.996;8.334;2022-12-31T09:56:46;20.60;60.50
19060;DHT22;9663;48.996;8.334;2022-12-31T10:02:57;20.50;60.80
19060;DHT22;9663;48.996;8.334;2022-12-31T10:05:51;20.70;61.10
19060;DHT22;9663;48.996;8.334;2022-12-31T10:09:24;20.70;60.50
19060;DHT22;9663;48.996;8.334;2022-12-31T10:15:29;21.30;61.10
19060;DHT22;9663;48.996;8.334;2022-12-31T10:21:13;20.90;60.60
19060;DHT22;9663;48.996;8.334;2022-12-31T10:24:16;21.20;59.70
19060;DHT22;9663;48.996;8.334;2022-12-31T11:12:46;22.30;58.80
19060;DHT22;9663;48.996;8.334;2022-12-31T11:18:46;22.40;57.70
19060;DHT22;9663;48.996;8.334;2022-12-31T11:24:21;22.40;58.50
19060;DHT22;9663;48.996;8.334;2022-12-31T11:58:35;26.10;51.70
19060;DHT22;9663;48.996;8.334;2022-12-31T12:03:37;26.70;53.80
19060;DHT22;9663;48.996;8.334;2022-12-31T12:06:14;26.40;53.40
19060;DHT22;9663;48.996;8.334;2022-12-31T12:08:51;26.80;52.90
19060;DHT22;9663;48.996;8.334;2022-12-31T12:11:25;26.90;52.50
19060;DHT22;9663;48.996;8.334;2022-12-31T12:13:53;26.90;52.10
19060;DHT22;9663;48.996;8.334;2022-12-31T12:16:20;26.90;52.20
19060;DHT22;9663;48.996;8.334;2022-12-31T12:18:49;27.00;51.90
19060;DHT22;9663;48.996;8.334;2022-12-31T12:21:25;26.90;50.80
19060;DHT22;9663;48.996;8.334;2022-12-31T12:23:58;26.90;51.50
19060;DHT22;9663;48.996;8.334;2022-12-31T12:26:32;26.70;50.90
19060;DHT22;9663;48.996;8.334;2022-12-31T12:29:15;26.60;51.60
19060;DHT22;9663;48.996;8.334;2022-12-31T12:32:17;26.50;50.60
19060;DHT22;9663;48.996;8.334;2022-12-31T12:34:45;26.40;49.90
19060;DHT22;9663;48.996;8.334;2022-12-31T12:42:27;26.00;50.90
19060;DHT22;9663;48.996;8.334;2022-12-31T12:45:05;26.00;51.40
19060;DHT22;9663;48.996;8.334;2022-12-31T12:47:42;25.80;50.40
19060;DHT22;9663;48.996;8.334;2022-12-31T12:50:15;25.60;51.00
19060;DHT22;9663;48.996;8.334;2022-12-31T12:58:40;24.90;50.30
19060;DHT22;9663;48.996;8.334;2022-12-31T13:01:38;24.50;50.90
19060;DHT22;9663;48.996;8.334;2022-12-31T13:09:59;24.10;51.60
19060;DHT22;9663;48.996;8.334;2022-12-31T13:12:50;23.90;52.50
19060;DHT22;9663;48.996;8.334;2022-12-31T13:21:30;23.30;52.20
19060;DHT22;9663;48.996;8.334;2022-12-31T13:30:02;23.10;52.10
19060;DHT22;9663;48.996;8.334;2022-12-31T13:32:41;23.70;53.00
19060;DHT22;9663;48.996;8.334;2022-12-31T13:35:26;23.70;53.10
19060;DHT22;9663;48.996;8.334;2022-12-31T13:38:09;23.00;52.40
19060;DHT22;9663;48.996;8.334;2022-12-31T13:43:45;23.00;52.60
19060;DHT22;9663;48.996;8.334;2022-12-31T13:46:24;23.00;52.30
19060;DHT22;9663;48.996;8.334;2022-12-31T13:49:04;23.00;52.70
19060;DHT22;9663;48.996;8.334;2022-12-31T13:51:46;22.80;52.90
19060;DHT22;9663;48.996;8.334;2022-12-31T13:54:31;23.10;52.80
19060;DHT22;9663;48.996;8.334;2022-12-31T13:57:09;22.90;52.50
19060;DHT22;9663;48.996;8.334;2022-12-31T13:59:53;22.90;53.60
19060;DHT22;9663;48.996;8.334;2022-12-31T14:07:45;22.60;52.90
19060;DHT22;9663;48.996;8.334;2022-12-31T14:10:24;22.50;52.80
19060;DHT22;9663;48.996;8.334;2022-12-31T14:21:36;22.20;52.80
19060;DHT22;9663;48.996;8.334;2022-12-31T14:24:31;22.50;53.50
19060;DHT22;9663;48.996;8.334;2022-12-31T14:27:07;22.40;52.70
19060;DHT22;9663;48.996;8.334;2022-12-31T14:29:48;22.10;52.90
19060;DHT22;9663;48.996;8.334;2022-12-31T14:38:22;22.00;53.20
19060;DHT22;9663;48.996;8.334;2022-12-31T14:44:25;21.80;52.90
19060;DHT22;9663;48.996;8.334;2022-12-31T14:50:08;21.70;53.20
19060;DHT22;9663;48.996;8.334;2022-12-31T14:52:50;21.50;53.30
19060;DHT22;9663;48.996;8.334;2022-12-31T14:57:54;21.30;53.50
19060;DHT22;9663;48.996;8.334;2022-12-31T15:00:37;21.80;53.90
19060;DHT22;9663;48.996;8.334;2022-12-31T15:05:58;21.20;53.80
19060;DHT22;9663;48.996;8.334;2022-12-31T15:18:27;21.00;53.70
19060;DHT22;9663;48.996;8.334;2022-12-31T15:21:13;20.90;53.70
19060;DHT22;9663;48.996;8.334;2022-12-31T15:23:57;20.80;53.90
19060;DHT22;9663;48.996;8.334;2022-12-31T15:26:26;20.80;54.20
19060;DHT22;9663;48.996;8.334;2022-12-31T15:29:04;21.50;54.50
19060;DHT22;9663;48.996;8.334;2022-12-31T15:31:34;20.40;53.90
19060;DHT22;9663;48.996;8.334;2022-12-31T15:34:04;20.80;54.20
19060;DHT22;9663;48.996;8.334;2022-12-31T15:36:33;20.40;54.00
19060;DHT22;9663;48.996;8.334;2022-12-31T15:41:38;20.70;54.20
19060;DHT22;9663;48.996;8.334;2022-12-31T15:44:10;20.80;54.40
19060;DHT22;9663;48.996;8.334;2022-12-31T15:46:42;20.40;54.30
19060;DHT22;9663;48.996;8.334;2022-12-31T15:49:12;20.50;54.30
19060;DHT22;9663;48.996;8.334;2022-12-31T15:52:10;20.40;54.30
19060;DHT22;9663;48.996;8.334;2022-12-31T15:54:41;20.30;54.00
19060;DHT22;9663;48.996;8.334;2022-12-31T15:57:25;19.90;54.20
19060;DHT22;9663;48.996;8.334;2022-12-31T16:00:13;20.30;54.20
19060;DHT22;9663;48.996;8.334;2022-12-31T16:02:41;20.20;54.30
19060;DHT22;9663;48.996;8.334;2022-12-31T16:05:22;19.90;54.30
19060;DHT22;9663;48.996;8.334;2022-12-31T16:07:55;20.50;54.50
19060;DHT22;9663;48.996;8.334;2022-12-31T16:10:27;20.20;54.50
19060;DHT22;9663;48.996;8.334;2022-12-31T16:12:55;19.90;54.40
19060;DHT22;9663;48.996;8.334;2022-12-31T16:15:28;19.80;54.50
19060;DHT22;9663;48.996;8.334;2022-12-31T16:18:03;19.80;54.50
19060;DHT22;9663;48.996;8.334;2022-12-31T16:20:32;19.80;54.50
19060;DHT22;9663;48.996;8.334;2022-12-31T16:23:00;19.70;54.60
19060;DHT22;9663;48.996;8.334;2022-12-31T16:25:29;19.80;54.70
19060;DHT22;9663;48.996;8.334;2022-12-31T16:27:56;19.60;54.60
19060;DHT22;9663;48.996;8.334;2022-12-31T16:30:32;19.40;54.60
19060;DHT22;9663;48.996;8.334;2022-12-31T16:33:04;19.50;54.50
19060;DHT22;9663;48.996;8.334;2022-12-31T16:35:35;19.70;54.70
19060;DHT22;9663;48.996;8.334;2022-12-31T16:40:41;19.70;54.80
19060;DHT22;9663;48.996;8.334;2022-12-31T16:43:36;19.40;54.80
19060;DHT22;9663;48.996;8.334;2022-12-31T16:46:19;19.70;54.90
19060;DHT22;9663;48.996;8.334;2022-12-31T16:48:59;19.60;54.90
19060;DHT22;9663;48.996;8.334;2022-12-31T16:51:30;19.40;54.80
19060;DHT22;9663;48.996;8.334;2022-12-31T16:54:00;19.30;54.90
19060;DHT22;9663;48.996;8.334;2022-12-31T16:56:33;19.30;54.80
19060;DHT22;9663;48.996;8.334;2022-12-31T16:59:16;19.40;54.90
19060;DHT22;9663;48.996;8.334;2022-12-31T17:01:49;19.30;54.80
19060;DHT22;9663;48.996;8.334;2022-12-31T17:04:18;19.40;55.00
19060;DHT22;9663;48.996;8.334;2022-12-31T17:06:46;19.30;55.10
19060;DHT22;9663;48.996;8.334;2022-12-31T17:09:13;19.60;55.30
19060;DHT22;9663;48.996;8.334;2022-12-31T17:11:54;19.30;55.20
19060;DHT22;9663;48.996;8.334;2022-12-31T17:14:25;19.30;55.00
19060;DHT22;9663;48.996;8.334;2022-12-31T17:17:02;19.40;55.10
19060;DHT22;9663;48.996;8.334;2022-12-31T17:19:39;19.40;55.00
19060;DHT22;9663;48.996;8.334;2022-12-31T17:24:58;19.40;54.90
19060;DHT22;9663;48.996;8.334;2022-12-31T17:27:26;19.10;54.90
19060;DHT22;9663;48.996;8.334;2022-12-31T17:29:53;19.30;55.10
19060;DHT22;9663;48.996;8.334;2022-12-31T17:32:37;19.30;55.10
19060;DHT22;9663;48.996;8.334;2022-12-31T17:35:27;21.40;56.10
19060;DHT22;9663;48.996;8.334;2022-12-31T17:37:53;18.80;54.90
19060;DHT22;9663;48.996;8.334;2022-12-31T17:40:36;19.20;55.30
19060;DHT22;9663;48.996;8.334;2022-12-31T17:43:04;18.80;55.00
19060;DHT22;9663;48.996;8.334;2022-12-31T17:45:35;19.80;55.70
19060;DHT22;9663;48.996;8.334;2022-12-31T17:48:02;18.80;55.20
19060;DHT22;9663;48.996;8.334;2022-12-31T17:50:28;18.90;55.30
19060;DHT22;9663;48.996;8.334;2022-12-31T17:53:20;18.90;56.00
19060;DHT22;9663;48.996;8.334;2022-12-31T17:55:49;19.30;55.60
19060;DHT22;9663;48.996;8.334;2022-12-31T17:58:31;19.70;55.90
19060;DHT22;9663;48.996;8.334;2022-12-31T18:01:01;18.40;55.30
19060;DHT22;9663;48.996;8.334;2022-12-31T18:03:30;18.50;55.60
19060;DHT22;9663;48.996;8.334;2022-12-31T18:05:56;18.40;55.50
19060;DHT22;9663;48.996;8.334;2022-12-31T18:08:22;18.50;55.60
19060;DHT22;9663;48.996;8.334;2022-12-31T18:10:48;18.50;55.70
19060;DHT22;9663;48.996;8.334;2022-12-31T18:13:21;18.50;55.70
19060;DHT22;9663;48.996;8.334;2022-12-31T18:15:49;18.40;55.70
19060;DHT22;9663;48.996;8.334;2022-12-31T18:20:50;19.90;56.40
19060;DHT22;9663;48.996;8.334;2022-12-31T18:23:24;18.50;55.70
19060;DHT22;9663;48.996;8.334;2022-12-31T18:25:52;18.50;55.60
19060;DHT22;9663;48.996;8.334;2022-12-31T18:28:18;18.60;55.70
19060;DHT22;9663;48.996;8.334;2022-12-31T18:30:45;19.30;56.10
19060;DHT22;9663;48.996;8.334;2022-12-31T18:33:13;18.40;55.70
19060;DHT22;9663;48.996;8.334;2022-12-31T18:35:41;18.60;55.70
19060;DHT22;9663;48.996;8.334;2022-12-31T18:38:12;18.80;55.90
19060;DHT22;9663;48.996;8.334;2022-12-31T18:40:39;18.60;55.70
19060;DHT22;9663;48.996;8.334;2022-12-31T18:43:16;18.90;55.90
19060;DHT22;9663;48.996;8.334;2022-12-31T18:45:44;18.60;55.70
19060;DHT22;9663;48.996;8.334;2022-12-31T18:48:13;19.10;55.90
19060;DHT22;9663;48.996;8.334;2022-12-31T18:50:40;18.60;55.60
19060;DHT22;9663;48.996;8.334;2022-12-31T18:53:06;18.60;55.70
19060;DHT22;9663;48.996;8.334;2022-12-31T18:55:41;19.00;55.90
19060;DHT22;9663;48.996;8.334;2022-12-31T18:58:10;18.90;55.90
19060;DHT22;9663;48.996;8.334;2022-12-31T19:00:36;18.80;55.80
19060;DHT22;9663;48.996;8.334;2022-12-31T19:03:03;19.90;56.30
19060;DHT22;9663;48.996;8.334;2022-12-31T19:05:31;18.90;55.80
19060;DHT22;9663;48.996;8.334;2022-12-31T19:07:58;18.80;55.70
19060;DHT22;9663;48.996;8.334;2022-12-31T19:10:25;18.50;55.50
19060;DHT22;9663;48.996;8.334;2022-12-31T19:12:52;18.40;55.50
19060;DHT22;9663;48.996;8.334;2022-12-31T19:15:28;19.10;55.80
19060;DHT22;9663;48.996;8.334;2022-12-31T19:18:00;18.40;56.20
19060;DHT22;9663;48.996;8.334;2022-12-31T19:20:28;18.70;55.70
19060;DHT22;9663;48.996;8.334;2022-12-31T19:22:55;18.30;55.60
19060;DHT22;9663;48.996;8.334;2022-12-31T19:25:34;18.40;55.60
19060;DHT22;9663;48.996;8.334;2022-12-31T19:28:01;18.80;55.80
19060;DHT22;9663;48.996;8.334;2022-12-31T19:30:30;18.60;55.70
19060;DHT22;9663;48.996;8.334;2022-12-31T19:32:57;18.30;55.60
19060;DHT22;9663;48.996;8.334;2022-12-31T19:35:24;18.30;55.60
19060;DHT22;9663;48.996;8.334;2022-12-31T19:37:51;18.60;55.70
19060;DHT22;9663;48.996;8.334;2022-12-31T19:40:29;18.40;55.70
19060;DHT22;9663;48.996;8.334;2022-12-31T19:42:55;18.40;55.70
19060;DHT22;9663;48.996;8.334;2022-12-31T19:45:22;18.30;55.70
19060;DHT22;9663;48.996;8.334;2022-12-31T19:47:50;18.50;55.80
19060;DHT22;9663;48.996;8.334;2022-12-31T19:50:19;18.60;55.80
19060;DHT22;9663;48.996;8.334;2022-12-31T19:52:48;18.50;55.80
19060;DHT22;9663;48.996;8.334;2022-12-31T19:55:18;18.30;55.70
19060;DHT22;9663;48.996;8.334;2022-12-31T19:57:45;18.40;55.80
19060;DHT22;9663;48.996;8.334;2022-12-31T20:00:14;18.20;55.70
19060;DHT22;9663;48.996;8.334;2022-12-31T20:02:42;18.40;55.80
19060;DHT22;9663;48.996;8.334;2022-12-31T20:05:09;19.20;56.20
19060;DHT22;9663;48.996;8.334;2022-12-31T20:07:36;18.30;55.80
19060;DHT22;9663;48.996;8.334;2022-12-31T20:10:02;18.20;55.80
19060;DHT22;9663;48.996;8.334;2022-12-31T20:12:29;18.00;55.80
19060;DHT22;9663;48.996;8.334;2022-12-31T20:14:55;18.00;55.80
19060;DHT22;9663;48.996;8.334;2022-12-31T20:17:21;18.10;55.90
19060;DHT22;9663;48.996;8.334;2022-12-31T20:19:47;18.10;56.00
19060;DHT22;9663;48.996;8.334;2022-12-31T20:22:13;18.90;56.40
19060;DHT22;9663;48.996;8.334;2022-12-31T20:24:38;17.90;56.00
19060;DHT22;9663;48.996;8.334;2022-12-31T20:27:05;17.80;56.00
19060;DHT22;9663;48.996;8.334;2022-12-31T20:29:34;17.90;56.10
19060;DHT22;9663;48.996;8.334;2022-12-31T20:32:01;18.00;56.30
19060;DHT22;9663;48.996;8.334;2022-12-31T20:34:27;17.80;56.30
19060;DHT22;9663;48.996;8.334;2022-12-31T20:36:54;17.80;56.30
19060;DHT22;9663;48.996;8.334;2022-12-31T20:39:20;17.80;56.30
19060;DHT22;9663;48.996;8.334;2022-12-31T20:41:45;17.90;56.30
19060;DHT22;9663;48.996;8.334;2022-12-31T20:44:11;18.80;56.80